sensor_id;sensor_type;location;lat;lon;timestamp;temperature;humidity
59703;DHT22;45570;48.782;8.332;2022-07-04T00:00:25;18.90;99.90
59703;DHT22;45570;48.782;8.332;2022-07-04T00:02:56;19.00;99.90
59703;DHT22;45570;48.782;8.332;2022-07-04T00:05:24;18.90;99.90
59703;DHT22;45570;48.782;8.332;2022-07-04T00:07:53;18.90;99.90
59703;DHT22;45570;48.782;8.332;2022-07-04T00:10:22;18.80;99.90
59703;DHT22;45570;48.782;8.332;2022-07-04T00:12:51;18.80;99.90
59703;DHT22;45570;48.782;8.332;2022-07-04T00:15:20;18.80;99.90
59703;DHT22;45570;48.782;8.332;2022-07-04T00:17:48;18.90;99.90
59703;DHT22;45570;48.782;8.332;2022-07-04T00:20:19;18.80;99.90
59703;DHT22;45570;48.782;8.332;2022-07-04T00:22:47;18.70;99.90
59703;DHT22;45570;48.782;8.332;2022-07-04T00:25:16;18.80;99.90
59703;DHT22;45570;48.782;8.332;2022-07-04T00:27:45;18.90;99.90
59703;DHT22;45570;48.782;8.332;2022-07-04T00:30:14;18.80;99.90
59703;DHT22;45570;48.782;8.332;2022-07-04T00:32:43;18.80;99.90
59703;DHT22;45570;48.782;8.332;2022-07-04T00:35:11;18.70;99.90
59703;DHT22;45570;48.782;8.332;2022-07-04T00:37:42;18.70;99.90
59703;DHT22;45570;48.782;8.332;2022-07-04T00:40:11;18.70;99.90
59703;DHT22;45570;48.782;8.332;2022-07-04T00:42:40;18.70;99.90
59703;DHT22;45570;48.782;8.332;2022-07-04T00:45:09;18.70;99.90
59703;DHT22;45570;48.782;8.332;2022-07-04T00:47:38;18.60;99.90
59703;DHT22;45570;48.782;8.332;2022-07-04T00:50:07;18.60;99.90
59703;DHT22;45570;48.782;8.332;2022-07-04T00:52:36;18.60;99.90
59703;DHT22;45570;48.782;8.332;2022-07-04T00:55:08;18.60;99.90
59703;DHT22;45570;48.782;8.332;2022-07-04T00:57:37;18.60;99.90
59703;DHT22;45570;48.782;8.332;2022-07-04T01:00:07;18.50;99.90
59703;DHT22;45570;48.782;8.332;2022-07-04T01:02:35;18.60;99.90
59703;DHT22;45570;48.782;8.332;2022-07-04T01:05:05;18.50;99.90
59703;DHT22;45570;48.782;8.332;2022-07-04T01:07:35;18.60;99.90
59703;DHT22;45570;48.782;8.332;2022-07-04T01:10:06;18.50;99.90
59703;DHT22;45570;48.782;8.332;2022-07-04T01:12:35;18.50;99.90
59703;DHT22;45570;48.782;8.332;2022-07-04T01:15:06;18.50;99.90
59703;DHT22;45570;48.782;8.332;2022-07-04T01:17:35;18.40;99.90
59703;DHT22;45570;48.782;8.332;2022-07-04T01:20:05;18.40;99.90
59703;DHT22;45570;48.782;8.332;2022-07-04T01:22:35;18.40;99.90
59703;DHT22;45570;48.782;8.332;2022-07-04T01:25:05;18.40;99.90
59703;DHT22;45570;48.782;8.332;2022-07-04T01:27:34;18.40;99.90
59703;DHT22;45570;48.782;8.332;2022-07-04T01:30:04;18.40;99.90
59703;DHT22;45570;48.782;8.332;2022-07-04T01:32:33;18.30;99.90
59703;DHT22;45570;48.782;8.332;2022-07-04T01:35:01;18.20;99.90
59703;DHT22;45570;48.782;8.332;2022-07-04T01:37:30;18.10;99.90
59703;DHT22;45570;48.782;8.332;2022-07-04T01:40:01;18.00;99.90
59703;DHT22;45570;48.782;8.332;2022-07-04T01:42:30;18.00;99.90
59703;DHT22;45570;48.782;8.332;2022-07-04T01:44:58;18.00;99.90
59703;DHT22;45570;48.782;8.332;2022-07-04T01:47:27;18.00;99.90
59703;DHT22;45570;48.782;8.332;2022-07-04T01:49:56;18.00;99.90
59703;DHT22;45570;48.782;8.332;2022-07-04T01:52:25;18.00;99.90
59703;DHT22;45570;48.782;8.332;2022-07-04T01:54:54;18.00;99.90
59703;DHT22;45570;48.782;8.332;2022-07-04T01:57:24;18.20;99.90
59703;DHT22;45570;48.782;8.332;2022-07-04T01:59:53;18.30;99.90
59703;DHT22;45570;48.782;8.332;2022-07-04T02:02:39;18.30;99.90
59703;DHT22;45570;48.782;8.332;2022-07-04T02:05:08;18.40;99.90
59703;DHT22;45570;48.782;8.332;2022-07-04T02:07:37;18.50;99.90
59703;DHT22;45570;48.782;8.332;2022-07-04T02:10:06;18.60;99.90
59703;DHT22;45570;48.782;8.332;2022-07-04T02:12:37;18.80;99.90
59703;DHT22;45570;48.782;8.332;2022-07-04T02:15:23;18.90;99.90
59703;DHT22;45570;48.782;8.332;2022-07-04T02:17:52;18.90;99.90
59703;DHT22;45570;48.782;8.332;2022-07-04T02:20:21;18.90;99.90
59703;DHT22;45570;48.782;8.332;2022-07-04T02:22:50;18.90;99.90
59703;DHT22;45570;48.782;8.332;2022-07-04T02:25:19;18.90;99.90
59703;DHT22;45570;48.782;8.332;2022-07-04T02:27:56;18.80;99.90
59703;DHT22;45570;48.782;8.332;2022-07-04T02:30:25;18.70;99.90
59703;DHT22;45570;48.782;8.332;2022-07-04T02:32:54;18.70;99.90
59703;DHT22;45570;48.782;8.332;2022-07-04T02:35:22;18.80;99.90
59703;DHT22;45570;48.782;8.332;2022-07-04T02:37:51;18.90;99.90
59703;DHT22;45570;48.782;8.332;2022-07-04T02:40:20;18.80;99.90
59703;DHT22;45570;48.782;8.332;2022-07-04T02:42:48;18.70;99.90
59703;DHT22;45570;48.782;8.332;2022-07-04T02:45:18;18.60;99.90
59703;DHT22;45570;48.782;8.332;2022-07-04T02:47:47;18.50;99.90
59703;DHT22;45570;48.782;8.332;2022-07-04T02:50:16;18.40;99.90
59703;DHT22;45570;48.782;8.332;2022-07-04T02:52:45;18.30;99.90
59703;DHT22;45570;48.782;8.332;2022-07-04T02:55:13;18.30;99.90
59703;DHT22;45570;48.782;8.332;2022-07-04T02:57:42;18.30;99.90
59703;DHT22;45570;48.782;8.332;2022-07-04T03:00:12;18.00;99.90
59703;DHT22;45570;48.782;8.332;2022-07-04T03:02:42;18.00;99.90
59703;DHT22;45570;48.782;8.332;2022-07-04T03:05:11;17.90;99.90
59703;DHT22;45570;48.782;8.332;2022-07-04T03:07:40;17.80;99.90
59703;DHT22;45570;48.782;8.332;2022-07-04T03:10:09;17.70;99.90
59703;DHT22;45570;48.782;8.332;2022-07-04T03:12:38;17.60;99.90
59703;DHT22;45570;48.782;8.332;2022-07-04T03:15:07;17.40;99.90
59703;DHT22;45570;48.782;8.332;2022-07-04T03:17:36;17.30;99.90
59703;DHT22;45570;48.782;8.332;2022-07-04T03:20:07;17.20;99.90
59703;DHT22;45570;48.782;8.332;2022-07-04T03:22:36;17.10;99.90
59703;DHT22;45570;48.782;8.332;2022-07-04T03:25:06;17.10;99.90
59703;DHT22;45570;48.782;8.332;2022-07-04T03:27:34;17.00;99.90
59703;DHT22;45570;48.782;8.332;2022-07-04T03:30:04;17.00;99.90
59703;DHT22;45570;48.782;8.332;2022-07-04T03:32:35;15.40;99.90
59703;DHT22;45570;48.782;8.332;2022-07-04T03:35:06;16.90;99.90
59703;DHT22;45570;48.782;8.332;2022-07-04T03:37:35;16.80;99.90
59703;DHT22;45570;48.782;8.332;2022-07-04T03:40:05;16.40;99.90
59703;DHT22;45570;48.782;8.332;2022-07-04T03:42:34;16.90;99.90
59703;DHT22;45570;48.782;8.332;2022-07-04T03:45:03;17.00;99.90
59703;DHT22;45570;48.782;8.332;2022-07-04T03:47:33;16.90;99.90
59703;DHT22;45570;48.782;8.332;2022-07-04T03:50:02;17.40;99.90
59703;DHT22;45570;48.782;8.332;2022-07-04T03:52:32;16.60;99.90
59703;DHT22;45570;48.782;8.332;2022-07-04T03:55:01;16.70;99.90
59703;DHT22;45570;48.782;8.332;2022-07-04T03:57:30;16.70;99.90
59703;DHT22;45570;48.782;8.332;2022-07-04T03:59:58;16.70;99.90
59703;DHT22;45570;48.782;8.332;2022-07-04T04:02:27;16.60;99.90
59703;DHT22;45570;48.782;8.332;2022-07-04T04:04:56;16.70;99.90
59703;DHT22;45570;48.782;8.332;2022-07-04T04:07:43;16.80;99.90
59703;DHT22;45570;48.782;8.332;2022-07-04T04:10:12;16.80;99.90
59703;DHT22;45570;48.782;8.332;2022-07-04T04:12:40;16.80;99.90
59703;DHT22;45570;48.782;8.332;2022-07-04T04:15:09;16.80;99.90
59703;DHT22;45570;48.782;8.332;2022-07-04T04:17:38;16.70;99.90
59703;DHT22;45570;48.782;8.332;2022-07-04T04:20:08;16.70;99.90
59703;DHT22;45570;48.782;8.332;2022-07-04T04:22:37;16.70;99.90
59703;DHT22;45570;48.782;8.332;2022-07-04T04:25:08;16.80;99.90
59703;DHT22;45570;48.782;8.332;2022-07-04T04:27:36;16.70;99.90
59703;DHT22;45570;48.782;8.332;2022-07-04T04:30:06;16.70;99.90
59703;DHT22;45570;48.782;8.332;2022-07-04T04:32:35;16.70;99.90
59703;DHT22;45570;48.782;8.332;2022-07-04T04:35:05;16.70;99.90
59703;DHT22;45570;48.782;8.332;2022-07-04T04:37:33;16.70;99.90
59703;DHT22;45570;48.782;8.332;2022-07-04T04:40:03;16.80;99.90
59703;DHT22;45570;48.782;8.332;2022-07-04T04:42:33;16.80;99.90
59703;DHT22;45570;48.782;8.332;2022-07-04T04:45:04;16.80;99.90
59703;DHT22;45570;48.782;8.332;2022-07-04T04:47:33;16.80;99.90
59703;DHT22;45570;48.782;8.332;2022-07-04T04:50:01;16.80;99.90
59703;DHT22;45570;48.782;8.332;2022-07-04T04:52:30;16.80;99.90
59703;DHT22;45570;48.782;8.332;2022-07-04T04:54:59;16.80;99.90
59703;DHT22;45570;48.782;8.332;2022-07-04T04:57:28;16.80;99.90
59703;DHT22;45570;48.782;8.332;2022-07-04T04:59:58;17.00;99.90
59703;DHT22;45570;48.782;8.332;2022-07-04T05:02:27;17.10;99.90
59703;DHT22;45570;48.782;8.332;2022-07-04T05:04:56;17.20;99.90
59703;DHT22;45570;48.782;8.332;2022-07-04T05:07:24;17.20;99.90
59703;DHT22;45570;48.782;8.332;2022-07-04T05:09:53;17.20;99.90
59703;DHT22;45570;48.782;8.332;2022-07-04T05:12:26;17.30;99.90
59703;DHT22;45570;48.782;8.332;2022-07-04T05:14:55;17.30;99.90
59703;DHT22;45570;48.782;8.332;2022-07-04T05:17:25;17.50;99.90
59703;DHT22;45570;48.782;8.332;2022-07-04T05:19:54;17.50;99.90
59703;DHT22;45570;48.782;8.332;2022-07-04T05:22:23;17.60;99.90
59703;DHT22;45570;48.782;8.332;2022-07-04T05:24:52;17.80;99.90
59703;DHT22;45570;48.782;8.332;2022-07-04T05:27:21;18.10;99.90
59703;DHT22;45570;48.782;8.332;2022-07-04T05:29:49;18.30;99.90
59703;DHT22;45570;48.782;8.332;2022-07-04T05:32:21;18.70;99.90
59703;DHT22;45570;48.782;8.332;2022-07-04T05:34:51;19.10;99.90
59703;DHT22;45570;48.782;8.332;2022-07-04T05:37:20;19.70;99.90
59703;DHT22;45570;48.782;8.332;2022-07-04T05:39:49;20.00;99.90
59703;DHT22;45570;48.782;8.332;2022-07-04T05:42:18;20.30;99.90
59703;DHT22;45570;48.782;8.332;2022-07-04T05:44:47;20.40;99.90
59703;DHT22;45570;48.782;8.332;2022-07-04T05:47:16;20.70;99.90
59703;DHT22;45570;48.782;8.332;2022-07-04T05:49:44;20.70;99.90
59703;DHT22;45570;48.782;8.332;2022-07-04T05:52:15;20.70;99.90
59703;DHT22;45570;48.782;8.332;2022-07-04T05:54:44;20.90;99.90
59703;DHT22;45570;48.782;8.332;2022-07-04T05:57:13;21.10;99.90
59703;DHT22;45570;48.782;8.332;2022-07-04T05:59:42;21.30;99.90
59703;DHT22;45570;48.782;8.332;2022-07-04T06:02:12;21.30;99.90
59703;DHT22;45570;48.782;8.332;2022-07-04T06:04:42;21.30;99.90
59703;DHT22;45570;48.782;8.332;2022-07-04T06:07:12;21.30;99.90
59703;DHT22;45570;48.782;8.332;2022-07-04T06:09:42;21.30;99.90
59703;DHT22;45570;48.782;8.332;2022-07-04T06:12:11;21.20;99.90
59703;DHT22;45570;48.782;8.332;2022-07-04T06:14:40;21.30;99.90
59703;DHT22;45570;48.782;8.332;2022-07-04T06:17:09;21.40;99.90
59703;DHT22;45570;48.782;8.332;2022-07-04T06:19:38;21.60;99.90
59703;DHT22;45570;48.782;8.332;2022-07-04T06:22:07;21.70;99.90
59703;DHT22;45570;48.782;8.332;2022-07-04T06:24:35;21.90;99.90
59703;DHT22;45570;48.782;8.332;2022-07-04T06:27:06;22.30;99.90
59703;DHT22;45570;48.782;8.332;2022-07-04T06:29:34;22.20;99.90
59703;DHT22;45570;48.782;8.332;2022-07-04T06:32:04;22.20;99.90
59703;DHT22;45570;48.782;8.332;2022-07-04T06:34:33;22.20;99.90
59703;DHT22;45570;48.782;8.332;2022-07-04T06:37:19;22.10;99.90
59703;DHT22;45570;48.782;8.332;2022-07-04T06:39:48;22.00;99.90
59703;DHT22;45570;48.782;8.332;2022-07-04T06:42:18;22.20;99.90
59703;DHT22;45570;48.782;8.332;2022-07-04T06:44:49;22.40;99.90
59703;DHT22;45570;48.782;8.332;2022-07-04T06:47:18;22.50;99.90
59703;DHT22;45570;48.782;8.332;2022-07-04T06:49:47;22.60;99.90
59703;DHT22;45570;48.782;8.332;2022-07-04T06:52:15;22.70;99.90
59703;DHT22;45570;48.782;8.332;2022-07-04T06:54:44;22.60;99.90
59703;DHT22;45570;48.782;8.332;2022-07-04T06:57:13;22.90;99.90
59703;DHT22;45570;48.782;8.332;2022-07-04T06:59:58;23.00;99.90
59703;DHT22;45570;48.782;8.332;2022-07-04T07:02:27;23.10;99.90
59703;DHT22;45570;48.782;8.332;2022-07-04T07:04:56;23.40;99.90
59703;DHT22;45570;48.782;8.332;2022-07-04T07:07:26;23.80;99.90
59703;DHT22;45570;48.782;8.332;2022-07-04T07:09:55;23.80;99.90
59703;DHT22;45570;48.782;8.332;2022-07-04T07:12:24;23.70;99.90
59703;DHT22;45570;48.782;8.332;2022-07-04T07:14:53;23.60;99.90
59703;DHT22;45570;48.782;8.332;2022-07-04T07:17:23;23.70;99.90
59703;DHT22;45570;48.782;8.332;2022-07-04T07:19:52;23.70;99.90
59703;DHT22;45570;48.782;8.332;2022-07-04T07:22:21;23.50;99.90
59703;DHT22;45570;48.782;8.332;2022-07-04T07:24:49;23.40;99.90
59703;DHT22;45570;48.782;8.332;2022-07-04T07:27:18;23.30;99.90
59703;DHT22;45570;48.782;8.332;2022-07-04T07:29:47;23.40;99.90
59703;DHT22;45570;48.782;8.332;2022-07-04T07:32:16;23.50;99.90
59703;DHT22;45570;48.782;8.332;2022-07-04T07:34:46;23.50;99.90
59703;DHT22;45570;48.782;8.332;2022-07-04T07:37:15;23.40;99.90
59703;DHT22;45570;48.782;8.332;2022-07-04T07:39:45;23.20;99.90
59703;DHT22;45570;48.782;8.332;2022-07-04T07:42:15;23.10;99.90
59703;DHT22;45570;48.782;8.332;2022-07-04T07:44:44;23.10;99.90
59703;DHT22;45570;48.782;8.332;2022-07-04T07:47:13;23.10;99.90
59703;DHT22;45570;48.782;8.332;2022-07-04T07:49:42;23.20;99.90
59703;DHT22;45570;48.782;8.332;2022-07-04T07:52:13;23.10;99.90
59703;DHT22;45570;48.782;8.332;2022-07-04T07:54:42;22.90;99.90
59703;DHT22;45570;48.782;8.332;2022-07-04T07:57:25;22.90;99.90
59703;DHT22;45570;48.782;8.332;2022-07-04T07:59:54;22.90;99.90
59703;DHT22;45570;48.782;8.332;2022-07-04T08:02:23;23.10;99.90
59703;DHT22;45570;48.782;8.332;2022-07-04T08:05:13;23.50;99.90
59703;DHT22;45570;48.782;8.332;2022-07-04T08:07:42;24.00;99.90
59703;DHT22;45570;48.782;8.332;2022-07-04T08:10:11;24.20;99.90
59703;DHT22;45570;48.782;8.332;2022-07-04T08:12:39;24.20;99.90
59703;DHT22;45570;48.782;8.332;2022-07-04T08:15:09;24.20;99.90
59703;DHT22;45570;48.782;8.332;2022-07-04T08:17:38;24.30;99.90
59703;DHT22;45570;48.782;8.332;2022-07-04T08:20:08;24.40;99.90
59703;DHT22;45570;48.782;8.332;2022-07-04T08:22:37;24.50;99.90
59703;DHT22;45570;48.782;8.332;2022-07-04T08:25:08;24.50;99.90
59703;DHT22;45570;48.782;8.332;2022-07-04T08:27:37;24.30;99.90
59703;DHT22;45570;48.782;8.332;2022-07-04T08:30:06;24.30;99.90
59703;DHT22;45570;48.782;8.332;2022-07-04T08:32:36;24.40;99.90
59703;DHT22;45570;48.782;8.332;2022-07-04T08:35:06;24.50;99.90
59703;DHT22;45570;48.782;8.332;2022-07-04T08:37:35;24.40;99.90
59703;DHT22;45570;48.782;8.332;2022-07-04T08:40:05;24.40;99.90
59703;DHT22;45570;48.782;8.332;2022-07-04T08:42:38;24.30;99.90
59703;DHT22;45570;48.782;8.332;2022-07-04T08:45:08;24.40;99.90
59703;DHT22;45570;48.782;8.332;2022-07-04T08:47:37;24.40;99.90
59703;DHT22;45570;48.782;8.332;2022-07-04T08:50:10;24.20;99.90
59703;DHT22;45570;48.782;8.332;2022-07-04T08:52:42;24.20;99.90
59703;DHT22;45570;48.782;8.332;2022-07-04T08:55:12;24.20;99.90
59703;DHT22;45570;48.782;8.332;2022-07-04T08:58:00;24.60;99.90
59703;DHT22;45570;48.782;8.332;2022-07-04T09:00:47;25.20;99.90
59703;DHT22;45570;48.782;8.332;2022-07-04T09:03:18;25.60;99.90
59703;DHT22;45570;48.782;8.332;2022-07-04T09:05:47;26.10;99.90
59703;DHT22;45570;48.782;8.332;2022-07-04T09:08:16;26.40;99.90
59703;DHT22;45570;48.782;8.332;2022-07-04T09:10:46;26.20;99.90
59703;DHT22;45570;48.782;8.332;2022-07-04T09:13:16;26.20;99.90
59703;DHT22;45570;48.782;8.332;2022-07-04T09:15:49;26.40;99.90
59703;DHT22;45570;48.782;8.332;2022-07-04T09:18:23;26.70;99.90
59703;DHT22;45570;48.782;8.332;2022-07-04T09:20:57;27.10;99.90
59703;DHT22;45570;48.782;8.332;2022-07-04T09:23:32;27.30;99.90
59703;DHT22;45570;48.782;8.332;2022-07-04T09:26:12;27.10;99.90
59703;DHT22;45570;48.782;8.332;2022-07-04T09:28:54;26.90;99.90
59703;DHT22;45570;48.782;8.332;2022-07-04T09:31:33;26.80;99.90
59703;DHT22;45570;48.782;8.332;2022-07-04T09:34:05;26.90;99.90
59703;DHT22;45570;48.782;8.332;2022-07-04T09:36:39;27.50;99.90
59703;DHT22;45570;48.782;8.332;2022-07-04T09:39:11;27.30;99.90
59703;DHT22;45570;48.782;8.332;2022-07-04T09:41:53;27.20;99.90
59703;DHT22;45570;48.782;8.332;2022-07-04T09:44:25;26.90;99.90
59703;DHT22;45570;48.782;8.332;2022-07-04T09:46:56;27.00;99.90
59703;DHT22;45570;48.782;8.332;2022-07-04T09:49:25;27.20;99.90
59703;DHT22;45570;48.782;8.332;2022-07-04T09:51:54;27.20;99.90
59703;DHT22;45570;48.782;8.332;2022-07-04T09:54:25;27.30;99.90
59703;DHT22;45570;48.782;8.332;2022-07-04T09:56:59;27.50;99.90
59703;DHT22;45570;48.782;8.332;2022-07-04T09:59:30;27.40;99.90
59703;DHT22;45570;48.782;8.332;2022-07-04T10:02:07;27.30;99.90
59703;DHT22;45570;48.782;8.332;2022-07-04T10:04:44;27.10;99.90
59703;DHT22;45570;48.782;8.332;2022-07-04T10:07:30;27.20;99.90
59703;DHT22;45570;48.782;8.332;2022-07-04T10:10:00;27.30;99.90
59703;DHT22;45570;48.782;8.332;2022-07-04T10:12:28;27.50;99.90
59703;DHT22;45570;48.782;8.332;2022-07-04T10:14:59;27.90;99.90
59703;DHT22;45570;48.782;8.332;2022-07-04T10:17:28;27.60;99.90
59703;DHT22;45570;48.782;8.332;2022-07-04T10:19:57;27.70;99.90
59703;DHT22;45570;48.782;8.332;2022-07-04T10:22:26;28.00;99.90
59703;DHT22;45570;48.782;8.332;2022-07-04T10:24:55;28.10;99.90
59703;DHT22;45570;48.782;8.332;2022-07-04T10:27:24;27.80;99.90
59703;DHT22;45570;48.782;8.332;2022-07-04T10:29:53;27.80;99.90
59703;DHT22;45570;48.782;8.332;2022-07-04T10:32:24;27.70;99.90
59703;DHT22;45570;48.782;8.332;2022-07-04T10:34:55;27.80;99.90
59703;DHT22;45570;48.782;8.332;2022-07-04T10:38:01;28.10;99.90
59703;DHT22;45570;48.782;8.332;2022-07-04T10:40:42;27.80;99.70
59703;DHT22;45570;48.782;8.332;2022-07-04T10:43:37;27.30;99.90
59703;DHT22;45570;48.782;8.332;2022-07-04T10:46:47;27.40;99.90
59703;DHT22;45570;48.782;8.332;2022-07-04T10:49:26;27.70;99.90
59703;DHT22;45570;48.782;8.332;2022-07-04T10:52:17;27.50;99.90
59703;DHT22;45570;48.782;8.332;2022-07-04T10:54:49;27.80;99.90
59703;DHT22;45570;48.782;8.332;2022-07-04T10:57:20;27.60;99.90
59703;DHT22;45570;48.782;8.332;2022-07-04T11:00:04;27.50;99.90
59703;DHT22;45570;48.782;8.332;2022-07-04T11:02:36;27.50;99.30
59703;DHT22;45570;48.782;8.332;2022-07-04T11:05:09;27.10;99.90
59703;DHT22;45570;48.782;8.332;2022-07-04T11:07:58;27.20;99.90
59703;DHT22;45570;48.782;8.332;2022-07-04T11:10:32;27.30;99.70
59703;DHT22;45570;48.782;8.332;2022-07-04T11:13:16;27.40;99.90
59703;DHT22;45570;48.782;8.332;2022-07-04T11:16:05;27.50;99.90
59703;DHT22;45570;48.782;8.332;2022-07-04T11:18:40;27.80;99.90
59703;DHT22;45570;48.782;8.332;2022-07-04T11:21:57;27.90;99.90
59703;DHT22;45570;48.782;8.332;2022-07-04T11:24:36;28.20;99.90
59703;DHT22;45570;48.782;8.332;2022-07-04T11:27:13;28.30;99.90
59703;DHT22;45570;48.782;8.332;2022-07-04T11:29:51;28.20;99.90
59703;DHT22;45570;48.782;8.332;2022-07-04T11:32:31;28.10;98.50
59703;DHT22;45570;48.782;8.332;2022-07-04T11:35:05;27.90;99.90
59703;DHT22;45570;48.782;8.332;2022-07-04T11:37:36;27.90;99.90
59703;DHT22;45570;48.782;8.332;2022-07-04T11:40:06;28.00;99.90
59703;DHT22;45570;48.782;8.332;2022-07-04T11:43:03;27.90;98.90
59703;DHT22;45570;48.782;8.332;2022-07-04T11:45:50;27.90;99.90
59703;DHT22;45570;48.782;8.332;2022-07-04T11:48:22;28.20;99.90
59703;DHT22;45570;48.782;8.332;2022-07-04T11:50:51;28.10;99.50
59703;DHT22;45570;48.782;8.332;2022-07-04T11:53:21;28.30;99.70
59703;DHT22;45570;48.782;8.332;2022-07-04T11:55:54;28.50;98.80
59703;DHT22;45570;48.782;8.332;2022-07-04T11:58:24;28.30;97.90
59703;DHT22;45570;48.782;8.332;2022-07-04T12:00:53;28.10;99.90
59703;DHT22;45570;48.782;8.332;2022-07-04T12:03:22;28.10;98.60
59703;DHT22;45570;48.782;8.332;2022-07-04T12:06:01;28.10;99.90
59703;DHT22;45570;48.782;8.332;2022-07-04T12:08:43;28.30;99.90
59703;DHT22;45570;48.782;8.332;2022-07-04T12:11:18;28.30;96.30
59703;DHT22;45570;48.782;8.332;2022-07-04T12:14:13;28.40;99.90
59703;DHT22;45570;48.782;8.332;2022-07-04T12:16:47;28.40;97.80
59703;DHT22;45570;48.782;8.332;2022-07-04T12:19:24;28.30;99.90
59703;DHT22;45570;48.782;8.332;2022-07-04T12:21:58;28.20;99.90
59703;DHT22;45570;48.782;8.332;2022-07-04T12:27:28;28.60;99.90
59703;DHT22;45570;48.782;8.332;2022-07-04T12:29:59;28.60;98.80
59703;DHT22;45570;48.782;8.332;2022-07-04T12:32:46;28.20;97.50
59703;DHT22;45570;48.782;8.332;2022-07-04T12:35:39;27.90;99.70
59703;DHT22;45570;48.782;8.332;2022-07-04T12:38:09;27.80;96.50
59703;DHT22;45570;48.782;8.332;2022-07-04T12:40:52;27.80;98.80
59703;DHT22;45570;48.782;8.332;2022-07-04T12:43:22;27.90;96.40
59703;DHT22;45570;48.782;8.332;2022-07-04T12:45:52;27.90;99.70
59703;DHT22;45570;48.782;8.332;2022-07-04T12:48:27;28.10;99.50
59703;DHT22;45570;48.782;8.332;2022-07-04T12:51:11;28.10;96.60
59703;DHT22;45570;48.782;8.332;2022-07-04T12:53:41;27.90;99.80
59703;DHT22;45570;48.782;8.332;2022-07-04T12:56:28;28.00;97.00
59703;DHT22;45570;48.782;8.332;2022-07-04T12:58:57;28.00;99.40
59703;DHT22;45570;48.782;8.332;2022-07-04T13:01:26;28.20;96.80
59703;DHT22;45570;48.782;8.332;2022-07-04T13:03:56;28.30;97.20
59703;DHT22;45570;48.782;8.332;2022-07-04T13:06:26;28.40;98.40
59703;DHT22;45570;48.782;8.332;2022-07-04T13:08:55;28.10;96.40
59703;DHT22;45570;48.782;8.332;2022-07-04T13:11:26;28.10;96.60
59703;DHT22;45570;48.782;8.332;2022-07-04T13:14:12;28.10;99.10
59703;DHT22;45570;48.782;8.332;2022-07-04T13:16:41;28.10;96.50
59703;DHT22;45570;48.782;8.332;2022-07-04T13:19:10;28.20;97.30
59703;DHT22;45570;48.782;8.332;2022-07-04T13:21:39;28.50;99.90
59703;DHT22;45570;48.782;8.332;2022-07-04T13:24:08;29.00;95.50
59703;DHT22;45570;48.782;8.332;2022-07-04T13:26:39;29.00;96.90
59703;DHT22;45570;48.782;8.332;2022-07-04T13:29:09;28.60;96.60
59703;DHT22;45570;48.782;8.332;2022-07-04T13:34:08;28.10;98.60
59703;DHT22;45570;48.782;8.332;2022-07-04T13:36:38;28.20;99.90
59703;DHT22;45570;48.782;8.332;2022-07-04T13:39:12;28.40;97.30
59703;DHT22;45570;48.782;8.332;2022-07-04T13:46:32;28.50;96.20
59703;DHT22;45570;48.782;8.332;2022-07-04T13:49:03;28.40;94.50
59703;DHT22;45570;48.782;8.332;2022-07-04T13:51:40;28.10;96.70
59703;DHT22;45570;48.782;8.332;2022-07-04T13:54:10;28.00;97.60
59703;DHT22;45570;48.782;8.332;2022-07-04T13:56:39;27.90;97.50
59703;DHT22;45570;48.782;8.332;2022-07-04T13:59:09;27.90;96.30
59703;DHT22;45570;48.782;8.332;2022-07-04T14:01:39;28.10;96.20
59703;DHT22;45570;48.782;8.332;2022-07-04T14:04:08;28.10;95.30
59703;DHT22;45570;48.782;8.332;2022-07-04T14:06:37;28.10;95.20
59703;DHT22;45570;48.782;8.332;2022-07-04T14:09:06;28.10;97.50
59703;DHT22;45570;48.782;8.332;2022-07-04T14:11:35;28.10;93.40
59703;DHT22;45570;48.782;8.332;2022-07-04T14:14:04;28.00;93.60
59703;DHT22;45570;48.782;8.332;2022-07-04T14:16:32;28.10;97.30
59703;DHT22;45570;48.782;8.332;2022-07-04T14:19:03;28.10;92.30
59703;DHT22;45570;48.782;8.332;2022-07-04T14:21:37;28.10;93.70
59703;DHT22;45570;48.782;8.332;2022-07-04T14:24:08;28.10;93.90
59703;DHT22;45570;48.782;8.332;2022-07-04T14:26:43;28.10;93.70
59703;DHT22;45570;48.782;8.332;2022-07-04T14:29:31;28.10;94.30
59703;DHT22;45570;48.782;8.332;2022-07-04T14:32:11;28.10;95.50
59703;DHT22;45570;48.782;8.332;2022-07-04T14:34:47;28.10;92.50
59703;DHT22;45570;48.782;8.332;2022-07-04T14:37:19;27.70;91.80
59703;DHT22;45570;48.782;8.332;2022-07-04T14:39:49;27.70;90.50
59703;DHT22;45570;48.782;8.332;2022-07-04T14:42:17;27.50;94.10
59703;DHT22;45570;48.782;8.332;2022-07-04T14:44:46;27.60;91.80
59703;DHT22;45570;48.782;8.332;2022-07-04T14:47:15;27.60;90.60
59703;DHT22;45570;48.782;8.332;2022-07-04T14:49:46;27.60;91.90
59703;DHT22;45570;48.782;8.332;2022-07-04T14:52:15;27.60;94.20
59703;DHT22;45570;48.782;8.332;2022-07-04T14:54:44;27.70;94.60
59703;DHT22;45570;48.782;8.332;2022-07-04T14:57:13;27.80;93.30
59703;DHT22;45570;48.782;8.332;2022-07-04T14:59:42;27.80;92.40
59703;DHT22;45570;48.782;8.332;2022-07-04T15:02:10;28.00;90.40
59703;DHT22;45570;48.782;8.332;2022-07-04T15:04:39;28.00;90.30
59703;DHT22;45570;48.782;8.332;2022-07-04T15:07:09;28.00;90.00
59703;DHT22;45570;48.782;8.332;2022-07-04T15:09:38;27.90;91.70
59703;DHT22;45570;48.782;8.332;2022-07-04T15:12:08;27.80;90.20
59703;DHT22;45570;48.782;8.332;2022-07-04T15:14:37;27.60;90.40
59703;DHT22;45570;48.782;8.332;2022-07-04T15:17:05;27.40;93.30
59703;DHT22;45570;48.782;8.332;2022-07-04T15:19:39;27.20;90.80
59703;DHT22;45570;48.782;8.332;2022-07-04T15:22:23;27.00;91.30
59703;DHT22;45570;48.782;8.332;2022-07-04T15:25:09;27.00;91.00
59703;DHT22;45570;48.782;8.332;2022-07-04T15:27:37;26.90;91.20
59703;DHT22;45570;48.782;8.332;2022-07-04T15:30:07;26.80;90.00
59703;DHT22;45570;48.782;8.332;2022-07-04T15:32:36;26.80;90.00
59703;DHT22;45570;48.782;8.332;2022-07-04T15:35:05;26.70;93.70
59703;DHT22;45570;48.782;8.332;2022-07-04T15:37:43;26.80;94.70
59703;DHT22;45570;48.782;8.332;2022-07-04T15:40:12;27.00;94.20
59703;DHT22;45570;48.782;8.332;2022-07-04T15:42:40;27.30;91.60
59703;DHT22;45570;48.782;8.332;2022-07-04T15:45:10;27.20;91.30
59703;DHT22;45570;48.782;8.332;2022-07-04T15:47:39;27.20;91.80
59703;DHT22;45570;48.782;8.332;2022-07-04T15:50:08;27.40;90.90
59703;DHT22;45570;48.782;8.332;2022-07-04T15:52:37;27.30;92.70
59703;DHT22;45570;48.782;8.332;2022-07-04T15:55:07;27.30;90.00
59703;DHT22;45570;48.782;8.332;2022-07-04T15:57:39;27.30;90.60
59703;DHT22;45570;48.782;8.332;2022-07-04T16:00:08;27.30;90.00
59703;DHT22;45570;48.782;8.332;2022-07-04T16:02:41;27.30;89.40
59703;DHT22;45570;48.782;8.332;2022-07-04T16:05:09;27.10;88.50
59703;DHT22;45570;48.782;8.332;2022-07-04T16:07:39;27.00;91.50